createdAt,value
2017-10-14T00:01:55.388Z,9.20
2017-10-14T00:04:24.438Z,12.37
2017-10-14T00:06:52.762Z,10.30
2017-10-14T00:09:21.050Z,11.63
2017-10-14T00:11:49.392Z,9.47
2017-10-14T00:14:18.443Z,9.70
2017-10-14T00:16:47.054Z,11.77
2017-10-14T00:19:15.362Z,9.90
2017-10-14T00:21:43.682Z,12.57
2017-10-14T00:24:12.002Z,10.87
2017-10-14T00:26:40.422Z,10.73
2017-10-14T00:29:08.715Z,10.20
2017-10-14T00:31:37.047Z,10.00
2017-10-14T00:34:05.334Z,9.93
2017-10-14T00:36:33.622Z,9.93
2017-10-14T00:39:01.954Z,10.27
2017-10-14T00:41:30.262Z,10.93
2017-10-14T00:43:58.574Z,10.50
2017-10-14T00:46:27.751Z,9.90
2017-10-14T00:48:56.038Z,11.23
2017-10-14T00:51:24.438Z,10.67
2017-10-14T00:53:54.278Z,11.17
2017-10-14T00:56:24.102Z,10.73
2017-10-14T00:58:52.484Z,10.50
2017-10-14T01:01:20.801Z,12.23
2017-10-14T01:03:49.890Z,11.33
2017-10-14T01:06:18.957Z,11.30
2017-10-14T01:08:47.280Z,11.40
2017-10-14T01:11:15.572Z,11.87
2017-10-14T01:13:43.862Z,12.53
2017-10-14T01:16:12.201Z,11.60
2017-10-14T01:18:40.530Z,12.50
2017-10-14T01:21:10.330Z,11.80
2017-10-14T01:23:38.659Z,12.80
2017-10-14T01:26:08.460Z,10.40
2017-10-14T01:28:36.782Z,12.33
2017-10-14T01:31:05.875Z,12.30
2017-10-14T01:33:34.159Z,12.70
2017-10-14T01:36:02.491Z,11.40
2017-10-14T01:38:30.822Z,12.63
2017-10-14T01:40:59.139Z,12.10
2017-10-14T01:43:27.467Z,12.17
2017-10-14T01:45:55.760Z,12.57
2017-10-14T01:48:24.056Z,14.10
2017-10-14T01:50:52.382Z,14.80
2017-10-14T01:53:20.719Z,14.40
2017-10-14T01:55:49.011Z,12.63
2017-10-14T01:58:17.294Z,13.40
2017-10-14T02:00:45.623Z,13.17
2017-10-14T02:03:13.947Z,14.20
2017-10-14T02:05:42.323Z,13.80
2017-10-14T02:08:10.606Z,14.27
2017-10-14T02:10:38.934Z,13.20
2017-10-14T02:13:08.320Z,13.30
2017-10-14T02:15:36.654Z,13.83
2017-10-14T02:18:04.943Z,14.20
2017-10-14T02:20:33.234Z,14.77
2017-10-14T02:23:01.683Z,15.30
2017-10-14T02:25:29.963Z,14.70
2017-10-14T02:27:58.251Z,14.10
2017-10-14T02:30:26.579Z,14.73
2017-10-14T02:32:54.909Z,16.03
2017-10-14T02:35:23.238Z,12.80
2017-10-14T02:37:51.551Z,15.03
2017-10-14T02:40:19.856Z,13.23
2017-10-14T02:42:48.256Z,16.67
2017-10-14T02:45:16.552Z,13.43
2017-10-14T02:47:44.853Z,15.37
2017-10-14T02:50:13.171Z,14.83
2017-10-14T02:52:41.462Z,16.00
2017-10-14T02:55:11.287Z,15.03
2017-10-14T02:57:40.378Z,16.10
2017-10-14T03:00:08.683Z,14.20
2017-10-14T03:02:37.019Z,14.57
2017-10-14T03:05:05.323Z,15.67
2017-10-14T03:07:33.607Z,15.70
2017-10-14T03:10:01.936Z,14.50
2017-10-14T03:12:30.228Z,13.63
2017-10-14T03:15:00.062Z,16.40
2017-10-14T03:17:29.119Z,15.73
2017-10-14T03:19:57.406Z,15.07
2017-10-14T03:22:25.783Z,14.40
2017-10-14T03:24:54.067Z,16.93
2017-10-14T03:27:22.386Z,15.43
2017-10-14T03:29:50.804Z,14.90
2017-10-14T03:32:19.096Z,15.20
2017-10-14T03:34:47.418Z,13.67
2017-10-14T03:37:15.702Z,16.13
2017-10-14T03:39:44.883Z,14.77
2017-10-14T03:42:13.179Z,14.47
2017-10-14T03:44:42.234Z,14.97
2017-10-14T03:47:10.562Z,15.17
2017-10-14T03:49:40.381Z,13.20
2017-10-14T03:52:08.774Z,13.20
2017-10-14T03:54:37.095Z,13.57
2017-10-14T03:57:06.279Z,14.40
2017-10-14T03:59:34.607Z,14.30
2017-10-14T04:02:02.899Z,13.63
2017-10-14T04:04:31.236Z,15.20
2017-10-14T04:06:59.532Z,14.50
2017-10-14T04:09:27.818Z,14.10
2017-10-14T04:11:56.140Z,13.57
2017-10-14T04:14:25.239Z,14.57
2017-10-14T04:16:53.530Z,12.93
2017-10-14T04:19:21.815Z,12.90
2017-10-14T04:21:50.186Z,13.67
2017-10-14T04:24:18.479Z,13.50
2017-10-14T04:26:47.169Z,12.80
2017-10-14T04:29:15.447Z,12.80
2017-10-14T04:31:43.781Z,12.40
2017-10-14T04:34:12.105Z,10.60
2017-10-14T04:36:40.399Z,12.90
2017-10-14T04:39:08.823Z,12.83
2017-10-14T04:41:37.120Z,11.90
2017-10-14T04:44:05.411Z,13.03
2017-10-14T04:46:33.726Z,13.10
2017-10-14T04:49:02.782Z,12.90
2017-10-14T04:51:31.114Z,11.53
2017-10-14T04:54:00.171Z,12.30
2017-10-14T04:56:28.462Z,12.13
2017-10-14T04:58:56.787Z,12.00
2017-10-14T05:01:25.114Z,11.13
2017-10-14T05:03:53.398Z,12.90
2017-10-14T05:06:21.687Z,11.90
2017-10-14T05:08:50.021Z,12.07
2017-10-14T05:11:18.298Z,12.80
2017-10-14T05:13:46.586Z,13.30
2017-10-14T05:16:14.906Z,12.10
2017-10-14T05:18:43.290Z,12.43
2017-10-14T05:21:11.582Z,10.20
2017-10-14T05:23:39.970Z,13.10
2017-10-14T05:26:08.366Z,11.80
2017-10-14T05:28:36.728Z,11.67
2017-10-14T05:31:05.064Z,13.03
2017-10-14T05:33:34.258Z,12.70
2017-10-14T05:36:02.553Z,12.17
2017-10-14T05:38:32.382Z,12.53
2017-10-14T05:41:00.675Z,12.33
2017-10-14T05:43:29.020Z,12.10
2017-10-14T05:45:57.311Z,12.20
2017-10-14T05:48:25.630Z,11.47
2017-10-14T05:50:53.960Z,12.07
2017-10-14T05:53:22.247Z,11.37
2017-10-14T05:55:50.594Z,13.37
2017-10-14T05:58:18.882Z,11.23
2017-10-14T06:00:47.210Z,10.93
2017-10-14T06:03:16.268Z,11.33
2017-10-14T06:05:44.675Z,12.30
2017-10-14T06:08:12.963Z,11.90
2017-10-14T06:10:41.291Z,12.00
2017-10-14T06:13:10.387Z,12.60
2017-10-14T06:15:39.438Z,12.53
2017-10-14T06:18:07.736Z,12.80
2017-10-14T06:20:36.066Z,12.53
2017-10-14T06:23:05.122Z,11.27
2017-10-14T06:25:33.419Z,13.10
2017-10-14T06:28:01.756Z,13.37
2017-10-14T06:30:30.816Z,12.90
2017-10-14T06:32:59.101Z,11.87
2017-10-14T06:35:27.427Z,12.20
2017-10-14T06:37:55.711Z,11.17
2017-10-14T06:40:25.548Z,12.80
2017-10-14T06:42:53.843Z,13.20
2017-10-14T06:45:22.927Z,12.80
2017-10-14T06:47:51.263Z,12.63
2017-10-14T06:50:19.556Z,12.00
2017-10-14T06:52:47.851Z,12.80
2017-10-14T06:55:16.167Z,13.80
2017-10-14T06:57:44.483Z,12.17
2017-10-14T07:00:12.807Z,11.93
2017-10-14T07:02:41.094Z,13.87
2017-10-14T07:05:09.423Z,12.87
2017-10-14T07:07:37.714Z,15.63
2017-10-14T07:10:06.011Z,12.50
2017-10-14T07:12:34.339Z,10.97
2017-10-14T07:15:03.443Z,11.47
2017-10-14T07:17:32.521Z,13.20
2017-10-14T07:20:00.810Z,13.63
2017-10-14T07:22:29.136Z,12.20
2017-10-14T07:24:58.186Z,14.87
2017-10-14T07:27:26.511Z,12.17
2017-10-14T07:29:56.422Z,11.10
2017-10-14T07:32:24.715Z,11.63
2017-10-14T07:34:52.998Z,11.90
2017-10-14T07:37:21.318Z,11.43
2017-10-14T07:39:50.415Z,11.50
2017-10-14T07:42:18.745Z,10.00
2017-10-14T07:44:47.030Z,11.20
2017-10-14T07:47:15.315Z,11.93
2017-10-14T07:49:43.688Z,8.90
2017-10-14T07:52:11.967Z,10.63
2017-10-14T07:54:40.303Z,10.43
2017-10-14T07:57:08.627Z,11.20
2017-10-14T07:59:36.950Z,10.33
2017-10-14T08:02:06.082Z,9.67
2017-10-14T08:04:34.408Z,9.63
2017-10-14T08:07:02.691Z,9.70
2017-10-14T08:09:31.003Z,9.93
2017-10-14T08:12:00.825Z,8.60
2017-10-14T08:14:29.230Z,9.37
2017-10-14T08:16:57.620Z,8.13
2017-10-14T08:19:25.965Z,7.27
2017-10-14T08:21:54.246Z,8.03
2017-10-14T08:24:22.570Z,9.23
2017-10-14T08:26:50.863Z,9.57
2017-10-14T08:29:19.207Z,9.20
2017-10-14T08:31:47.494Z,8.43
2017-10-14T08:34:15.774Z,9.47
2017-10-14T08:36:44.126Z,8.67
2017-10-14T08:39:12.513Z,7.30
2017-10-14T08:41:41.607Z,7.20
2017-10-14T08:44:09.919Z,7.37
2017-10-14T08:46:38.195Z,7.30
2017-10-14T08:49:06.550Z,9.40
2017-10-14T08:51:35.613Z,8.50
2017-10-14T08:54:03.891Z,7.97
2017-10-14T08:56:33.943Z,6.90
2017-10-14T08:59:03.120Z,7.77
2017-10-14T09:01:31.408Z,8.20
2017-10-14T09:03:59.726Z,8.50
2017-10-14T09:06:28.779Z,7.73
2017-10-14T09:08:57.195Z,5.80
2017-10-14T09:11:25.486Z,6.73
2017-10-14T09:13:55.414Z,6.63
2017-10-14T09:16:23.714Z,11.33
2017-10-14T09:18:51.999Z,7.93
2017-10-14T09:21:21.823Z,6.47
2017-10-14T09:23:50.143Z,7.37
2017-10-14T09:26:19.187Z,7.90
2017-10-14T09:28:47.520Z,9.33
2017-10-14T09:31:15.830Z,8.10
2017-10-14T09:33:44.927Z,11.60
2017-10-14T09:36:13.986Z,11.90
2017-10-14T09:38:42.279Z,8.80
2017-10-14T09:41:11.398Z,11.10
2017-10-14T09:43:39.674Z,8.10
2017-10-14T09:46:07.954Z,8.13
2017-10-14T09:48:36.270Z,8.90
2017-10-14T09:51:04.586Z,7.93
2017-10-14T09:53:32.958Z,9.37
2017-10-14T09:56:01.283Z,9.53
2017-10-14T09:58:30.468Z,8.50
2017-10-14T10:01:00.352Z,8.20
2017-10-14T10:03:28.663Z,8.40
2017-10-14T10:05:56.959Z,7.40
2017-10-14T10:08:25.355Z,10.30
2017-10-14T10:10:53.638Z,10.00
2017-10-14T10:13:21.955Z,10.30
2017-10-14T10:15:50.355Z,10.60
2017-10-14T10:18:19.448Z,10.00
2017-10-14T10:20:49.215Z,8.70
2017-10-14T10:23:19.355Z,10.37
2017-10-14T10:25:50.103Z,11.60
2017-10-14T10:28:19.747Z,7.57
2017-10-14T10:30:49.163Z,9.23
2017-10-14T10:33:17.583Z,5.80
2017-10-14T10:35:45.952Z,7.97
2017-10-14T10:38:14.231Z,9.83
2017-10-14T10:40:42.514Z,7.20
2017-10-14T10:43:10.831Z,7.87
2017-10-14T10:45:39.210Z,7.77
2017-10-14T10:48:07.795Z,8.20
2017-10-14T10:50:36.790Z,9.17
2017-10-14T10:53:05.107Z,6.50
2017-10-14T10:55:34.931Z,7.93
2017-10-14T10:58:03.210Z,9.03
2017-10-14T11:00:31.607Z,7.37
2017-10-14T11:02:59.887Z,7.67
2017-10-14T11:05:28.166Z,9.00
2017-10-14T11:07:56.492Z,8.67
2017-10-14T11:10:24.780Z,8.80
2017-10-14T11:12:53.160Z,9.60
2017-10-14T11:15:21.478Z,9.70
2017-10-14T11:17:50.560Z,11.17
2017-10-14T11:20:18.878Z,11.13
2017-10-14T11:22:47.972Z,9.97
2017-10-14T11:25:16.291Z,10.27
2017-10-14T11:27:44.574Z,8.63
2017-10-14T11:30:12.898Z,11.10
2017-10-14T11:32:41.225Z,10.57
2017-10-14T11:35:09.510Z,10.03
2017-10-14T11:37:37.856Z,11.50
2017-10-14T11:40:06.139Z,15.30
2017-10-14T11:42:34.426Z,38.77
2017-10-14T11:45:02.753Z,30.80
2017-10-14T11:47:31.035Z,15.87
2017-10-14T11:49:59.363Z,12.93
2017-10-14T11:52:28.416Z,23.87
2017-10-14T11:54:56.743Z,16.73
2017-10-14T11:57:25.031Z,20.63
2017-10-14T11:59:53.350Z,24.90
2017-10-14T12:02:21.638Z,38.00
2017-10-14T12:04:49.996Z,40.07
2017-10-14T12:07:19.787Z,35.97
2017-10-14T12:09:48.139Z,116.13
2017-10-14T12:12:16.471Z,22.07
2017-10-14T12:14:44.816Z,46.50
2017-10-14T12:17:13.866Z,16.37
2017-10-14T12:19:42.154Z,12.80
2017-10-14T12:22:10.574Z,49.07
2017-10-14T12:24:38.867Z,48.50
2017-10-14T12:27:07.195Z,23.40
2017-10-14T12:29:35.487Z,38.67
2017-10-14T12:32:03.806Z,29.80
2017-10-14T12:34:32.094Z,40.33
2017-10-14T12:37:00.423Z,77.67
2017-10-14T12:39:28.743Z,55.63
2017-10-14T12:41:57.063Z,28.70
2017-10-14T12:44:25.442Z,18.30
2017-10-14T12:46:53.766Z,31.77
2017-10-14T12:49:23.599Z,11.27
2017-10-14T12:51:51.934Z,15.60
2017-10-14T12:54:20.317Z,29.30
2017-10-14T12:56:48.606Z,17.80
2017-10-14T12:59:16.958Z,14.60
2017-10-14T13:01:46.758Z,24.13
2017-10-14T13:04:15.058Z,39.27
2017-10-14T13:06:43.386Z,36.40
2017-10-14T13:09:12.452Z,31.27
2017-10-14T13:11:40.761Z,17.20
2017-10-14T13:14:09.142Z,14.40
2017-10-14T13:16:38.239Z,17.80
2017-10-14T13:19:06.539Z,12.40
2017-10-14T13:21:34.872Z,12.97
2017-10-14T13:24:03.968Z,13.70
2017-10-14T13:26:33.215Z,20.40
2017-10-14T13:29:01.538Z,15.33
2017-10-14T13:31:29.826Z,11.47
2017-10-14T13:33:58.163Z,10.53
2017-10-14T13:36:26.506Z,13.13
2017-10-14T13:38:54.917Z,9.77
2017-10-14T13:41:23.204Z,11.83
2017-10-14T13:43:51.707Z,10.33
2017-10-14T13:46:20.762Z,9.60
2017-10-14T13:48:49.056Z,9.40
2017-10-14T13:51:17.376Z,8.80
2017-10-14T13:53:47.193Z,10.20
2017-10-14T13:56:15.519Z,10.37
2017-10-14T13:58:44.598Z,9.90
2017-10-14T14:01:14.395Z,10.47
2017-10-14T14:03:42.724Z,10.27
2017-10-14T14:06:11.007Z,9.50
2017-10-14T14:08:39.326Z,9.90
2017-10-14T14:11:08.391Z,10.70
2017-10-14T14:13:36.710Z,10.60
2017-10-14T14:16:05.798Z,10.10
2017-10-14T14:18:34.133Z,9.57
2017-10-14T14:21:02.419Z,9.40
2017-10-14T14:23:30.698Z,10.30
2017-10-14T14:25:59.062Z,10.57
2017-10-14T14:28:27.351Z,11.83
2017-10-14T14:30:55.675Z,9.77
2017-10-14T14:33:24.000Z,9.63
2017-10-14T14:35:52.332Z,10.10
2017-10-14T14:38:21.382Z,9.10
2017-10-14T14:40:49.663Z,9.60
2017-10-14T14:43:17.991Z,10.47
2017-10-14T14:45:46.386Z,10.20
2017-10-14T14:48:14.732Z,10.27
2017-10-14T14:50:43.057Z,10.47
2017-10-14T14:53:11.343Z,10.17
2017-10-14T14:55:39.681Z,11.10
2017-10-14T14:58:08.752Z,16.63
2017-10-14T15:00:37.088Z,13.77
2017-10-14T15:03:05.388Z,12.00
2017-10-14T15:05:33.674Z,12.20
2017-10-14T15:08:02.017Z,10.03
2017-10-14T15:10:31.863Z,9.90
2017-10-14T15:13:00.915Z,10.60
2017-10-14T15:15:29.208Z,9.67
2017-10-14T15:17:59.135Z,9.70
2017-10-14T15:20:27.426Z,11.37
2017-10-14T15:22:55.763Z,10.80
2017-10-14T15:25:24.828Z,13.10
2017-10-14T15:27:53.134Z,11.03
2017-10-14T15:30:21.475Z,11.40
2017-10-14T15:32:49.820Z,11.60
2017-10-14T15:35:19.614Z,11.73
2017-10-14T15:37:48.031Z,11.50
2017-10-14T15:40:16.355Z,11.27
2017-10-14T15:42:45.448Z,10.00
2017-10-14T15:45:13.819Z,12.07
2017-10-14T15:47:43.638Z,12.30
2017-10-14T15:50:11.967Z,9.87
2017-10-14T15:52:41.038Z,10.87
2017-10-14T15:55:10.866Z,11.60
2017-10-14T15:57:39.257Z,11.17
2017-10-14T16:00:08.342Z,10.60
2017-10-14T16:02:36.631Z,11.20
2017-10-14T16:05:04.937Z,12.80
2017-10-14T16:07:33.254Z,11.63
2017-10-14T16:10:02.315Z,11.30
2017-10-14T16:12:30.642Z,11.03
2017-10-14T16:14:58.990Z,12.07
2017-10-14T16:17:27.291Z,12.10
2017-10-14T16:19:55.610Z,11.63
2017-10-14T16:22:24.703Z,10.90
2017-10-14T16:24:52.990Z,13.63
2017-10-14T16:27:22.920Z,12.03
2017-10-14T16:29:51.256Z,12.80
2017-10-14T16:32:19.551Z,12.93
2017-10-14T16:34:47.862Z,12.93
2017-10-14T16:37:16.192Z,12.00
2017-10-14T16:39:45.982Z,13.03
2017-10-14T16:42:14.356Z,11.27
2017-10-14T16:44:42.991Z,11.50
2017-10-14T16:47:12.831Z,14.83
2017-10-14T16:49:41.210Z,12.80
2017-10-14T16:52:10.266Z,12.17
2017-10-14T16:54:38.549Z,13.13
2017-10-14T16:57:06.881Z,13.20
2017-10-14T16:59:35.166Z,12.33
2017-10-14T17:02:03.479Z,14.80
2017-10-14T17:04:31.788Z,13.50
2017-10-14T17:07:00.882Z,12.50
2017-10-14T17:09:29.263Z,13.37
2017-10-14T17:11:57.555Z,15.30
2017-10-14T17:14:27.381Z,17.20
2017-10-14T17:16:55.672Z,13.30
2017-10-14T17:19:24.014Z,16.50
2017-10-14T17:21:52.303Z,19.93
2017-10-14T17:24:20.631Z,18.17
2017-10-14T17:26:48.963Z,21.37
2017-10-14T17:29:17.260Z,19.80
2017-10-14T17:31:45.546Z,23.73
2017-10-14T17:34:14.048Z,21.97
2017-10-14T17:36:42.334Z,21.50
2017-10-14T17:39:10.659Z,21.90
2017-10-14T17:41:38.966Z,20.80
2017-10-14T17:44:08.807Z,19.97
2017-10-14T17:46:37.890Z,20.03
2017-10-14T17:49:06.210Z,22.00
2017-10-14T17:51:35.266Z,19.97
2017-10-14T17:54:03.683Z,19.40
2017-10-14T17:56:32.070Z,20.23
2017-10-14T17:59:00.410Z,18.40
2017-10-14T18:01:28.710Z,18.70
2017-10-14T18:03:57.002Z,20.57
2017-10-14T18:06:25.342Z,22.67
2017-10-14T18:08:53.695Z,22.07
2017-10-14T18:11:22.010Z,21.00
2017-10-14T18:13:50.406Z,20.77
2017-10-14T18:16:20.326Z,20.23
2017-10-14T18:18:48.721Z,19.40
2017-10-14T18:21:17.038Z,17.87
2017-10-14T18:23:46.099Z,19.23
2017-10-14T18:26:14.430Z,18.47
2017-10-14T18:28:43.486Z,19.53
2017-10-14T18:31:11.775Z,18.07
2017-10-14T18:33:40.210Z,17.80
2017-10-14T18:36:08.544Z,18.87
2017-10-14T18:38:36.872Z,16.80
2017-10-14T18:41:05.166Z,17.73
2017-10-14T18:43:33.463Z,19.07
2017-10-14T18:46:01.856Z,17.00
2017-10-14T18:48:30.243Z,17.40
2017-10-14T18:51:00.044Z,16.17
2017-10-14T18:53:28.337Z,16.80
2017-10-14T18:55:56.663Z,16.77
2017-10-14T18:58:25.715Z,17.47
2017-10-14T19:00:54.034Z,18.67
2017-10-14T19:03:23.831Z,16.70
2017-10-14T19:05:52.152Z,16.57
2017-10-14T19:08:20.484Z,16.73
2017-10-14T19:10:48.773Z,16.43
2017-10-14T19:13:17.866Z,16.10
2017-10-14T19:15:46.923Z,17.30
2017-10-14T19:18:15.262Z,16.47
2017-10-14T19:20:44.337Z,15.27
2017-10-14T19:23:12.639Z,16.23
2017-10-14T19:25:42.466Z,18.70
2017-10-14T19:28:10.755Z,17.53
2017-10-14T19:30:39.082Z,16.80
2017-10-14T19:33:07.375Z,16.30
2017-10-14T19:35:35.673Z,17.47
2017-10-14T19:38:03.992Z,15.87
2017-10-14T19:40:32.283Z,17.00
2017-10-14T19:43:00.701Z,18.97
2017-10-14T19:45:29.759Z,18.33
2017-10-14T19:47:58.077Z,15.40
2017-10-14T19:50:26.403Z,14.70
2017-10-14T19:52:55.483Z,16.87
2017-10-14T19:55:25.304Z,15.40
2017-10-14T19:57:53.694Z,15.63
2017-10-14T20:00:22.083Z,16.50
2017-10-14T20:02:50.411Z,15.30
2017-10-14T20:05:19.503Z,16.40
2017-10-14T20:07:47.851Z,16.90
2017-10-14T20:10:16.134Z,16.27
2017-10-14T20:12:44.427Z,18.53
2017-10-14T20:15:12.838Z,17.93
2017-10-14T20:17:41.239Z,18.00
2017-10-14T20:20:09.567Z,18.10
2017-10-14T20:22:37.898Z,16.57
2017-10-14T20:25:06.203Z,16.00
2017-10-14T20:27:34.522Z,16.60
2017-10-14T20:30:03.610Z,17.63
2017-10-14T20:32:31.991Z,17.80
2017-10-14T20:35:01.896Z,17.73
2017-10-14T20:37:30.188Z,17.80
2017-10-14T20:39:58.477Z,16.73
2017-10-14T20:42:26.811Z,19.80
2017-10-14T20:44:55.871Z,20.00
2017-10-14T20:47:24.195Z,18.83
2017-10-14T20:49:52.531Z,20.90
2017-10-14T20:52:20.819Z,18.47
2017-10-14T20:54:49.155Z,22.50
2017-10-14T20:57:17.548Z,23.40
2017-10-14T20:59:45.940Z,19.30
2017-10-14T21:02:15.791Z,22.27
2017-10-14T21:04:44.840Z,25.77
2017-10-14T21:07:13.130Z,23.73
2017-10-14T21:09:41.451Z,24.73
2017-10-14T21:12:09.742Z,25.30
2017-10-14T21:14:39.658Z,24.90
2017-10-14T21:17:07.976Z,24.63
2017-10-14T21:19:37.073Z,24.47
2017-10-14T21:22:05.363Z,22.20
2017-10-14T21:24:33.690Z,24.37
2017-10-14T21:27:02.036Z,23.57
2017-10-14T21:29:30.336Z,23.17
2017-10-14T21:31:59.536Z,24.03
2017-10-14T21:34:27.819Z,21.80
2017-10-14T21:36:56.111Z,24.27
2017-10-14T21:39:25.943Z,23.70
2017-10-14T21:41:54.230Z,23.20
2017-10-14T21:44:22.559Z,24.10
2017-10-14T21:46:50.874Z,25.93
2017-10-14T21:49:19.161Z,26.50
2017-10-14T21:51:47.502Z,26.20
2017-10-14T21:54:16.571Z,21.27
2017-10-14T21:56:44.860Z,26.23
2017-10-14T21:59:13.192Z,24.30
2017-10-14T22:01:42.271Z,26.40
2017-10-14T22:04:12.103Z,26.90
2017-10-14T22:06:40.394Z,31.47
2017-10-14T22:09:10.230Z,27.53
2017-10-14T22:11:38.523Z,28.33
2017-10-14T22:14:07.595Z,27.50
2017-10-14T22:16:35.939Z,28.10
2017-10-14T22:19:04.232Z,27.00
2017-10-14T22:21:32.524Z,28.97
2017-10-14T22:24:00.863Z,29.10
2017-10-14T22:26:29.160Z,27.33
2017-10-14T22:28:58.979Z,27.60
2017-10-14T22:31:28.902Z,26.60
2017-10-14T22:33:57.199Z,26.20
2017-10-14T22:36:26.991Z,27.20
2017-10-14T22:38:55.311Z,24.87
2017-10-14T22:41:25.111Z,26.40
2017-10-14T22:43:53.443Z,24.40
2017-10-14T22:46:22.508Z,24.93
2017-10-14T22:48:50.822Z,26.40
2017-10-14T22:51:19.201Z,26.33
2017-10-14T22:53:47.500Z,28.50
2017-10-14T22:56:17.298Z,27.40
2017-10-14T22:58:45.615Z,24.43
2017-10-14T23:01:14.108Z,24.93
2017-10-14T23:03:42.398Z,22.23
2017-10-14T23:06:10.714Z,25.67
2017-10-14T23:08:39.800Z,23.07
2017-10-14T23:11:09.600Z,23.27
2017-10-14T23:13:37.936Z,21.50
2017-10-14T23:16:07.031Z,20.37
2017-10-14T23:18:35.323Z,23.30
2017-10-14T23:21:03.643Z,20.70
2017-10-14T23:23:31.943Z,20.37
2017-10-14T23:26:00.240Z,21.00
2017-10-14T23:28:28.572Z,21.20
2017-10-14T23:30:57.623Z,20.77
2017-10-14T23:33:25.977Z,20.57
2017-10-14T23:35:54.291Z,20.30
2017-10-14T23:38:22.619Z,21.07
2017-10-14T23:40:51.029Z,19.83
2017-10-14T23:43:19.348Z,17.50
2017-10-14T23:45:48.402Z,19.50
2017-10-14T23:48:16.720Z,24.03
2017-10-14T23:50:45.102Z,22.57
2017-10-14T23:53:13.900Z,23.77
2017-10-14T23:55:43.136Z,23.30
2017-10-14T23:58:11.427Z,20.07
